Coldwater, Missouri
Current Conditions -  °F | °C
As of 7:53 AM on Monday 20 Oct 2014 (Local Time) from KPOF Reporting Station
Overcast Overcast  
Wind Chill: 52°   Ceiling: 9000
Heat Index: 52°   Visibility: 8mi
Dew Point: 48°   Wind: 3mph
Humidity: 86%   Direction: 200°SSW
Pressure: 30.04"   Gusts: NA
Location:  37.2405°N, 90.4398°W
Report Text: KPOF 201253Z AUTO 20003KT 8SM OVC090 11/09 A3004 RMK AO2 SLP171 T01110089
Loading
Personal Weather Stations






























Interactive Weather Map
Tropical Storm Tracking
New forecast layout! Learn more

10-Day Weather Forecast

Advertisements
Track Severe Weather on mobile